Time;durP1;ratioP1;P1;durP2;ratioP2;P2;SDS_P1;SDS_P2;PMS_P1;PMS_P2;Temp;Humidity;BMP_temperature;BMP_pressure;BME280_temperature;BME280_humidity;BME280_pressure;Samples;Min_cycle;Max_cycle;Signal;HPM_P1;HPM_P2
2023/12/10 00:01:15;;;;;;;28.65;6.95;;;7.40;99.90;;;;;;5092273;28;20093;-85
2023/12/10 00:03:41;;;;;;;29.80;7.67;;;7.40;99.90;;;;;;5082112;28;20409;-86
2023/12/10 00:06:07;;;;;;;28.53;7.03;;;7.40;99.90;;;;;;5095227;28;20040;-86
2023/12/10 00:08:33;;;;;;;32.75;7.00;;;7.60;99.90;;;;;;5087263;28;20040;-85
2023/12/10 00:10:59;;;;;;;29.00;6.83;;;6.80;99.90;;;;;;5086924;28;20687;-85
2023/12/10 00:13:24;;;;;;;22.93;5.90;;;7.40;99.90;;;;;;5068675;28;20131;-85
2023/12/10 00:15:51;;;;;;;21.03;5.17;;;7.30;99.90;;;;;;5091877;28;20067;-86
2023/12/10 00:18:16;;;;;;;23.25;6.30;;;6.60;99.90;;;;;;5073338;28;20466;-85
2023/12/10 00:20:43;;;;;;;33.13;7.57;;;7.40;99.90;;;;;;5076537;28;20068;-85
2023/12/10 00:23:11;;;;;;;20.75;6.65;;;7.40;99.90;;;;;;5071933;28;20056;-85
2023/12/10 00:25:43;;;;;;;33.83;7.75;;;7.40;99.90;;;;;;5118544;27;20119;-86
2023/12/10 00:28:08;;;;;;;22.40;6.72;;;7.40;99.90;;;;;;5088983;28;20498;-85
2023/12/10 00:30:36;;;;;;;19.17;6.23;;;7.40;99.90;;;;;;5058716;28;20126;-85
2023/12/10 00:33:03;;;;;;;23.20;6.07;;;8.10;99.90;;;;;;5076534;28;20768;-85
2023/12/10 00:35:29;;;;;;;18.38;5.78;;;7.40;99.90;;;;;;5074925;28;20055;-85
2023/12/10 00:37:55;;;;;;;26.17;7.13;;;7.40;99.90;;;;;;5072701;28;20040;-85
2023/12/10 00:40:21;;;;;;;31.30;7.93;;;7.40;99.90;;;;;;5091385;28;20148;-86
2023/12/10 00:42:47;;;;;;;18.85;5.25;;;7.40;99.90;;;;;;5058868;28;20040;-86
2023/12/10 00:45:12;;;;;;;26.63;6.77;;;7.40;99.90;;;;;;5058041;28;20032;-85
2023/12/10 00:47:38;;;;;;;26.67;7.20;;;7.40;99.90;;;;;;5093304;28;20040;-85
2023/12/10 00:50:05;;;;;;;27.93;5.70;;;7.40;99.90;;;;;;5073702;28;20039;-85
2023/12/10 00:52:30;;;;;;;30.65;8.13;;;7.40;99.90;;;;;;5074988;28;20040;-85
2023/12/10 00:54:56;;;;;;;28.10;6.90;;;7.40;99.90;;;;;;5055110;28;20058;-85
2023/12/10 00:57:22;;;;;;;20.67;5.77;;;7.40;99.90;;;;;;5082495;28;20040;-85
2023/12/10 00:59:47;;;;;;;13.97;5.43;;;7.50;99.90;;;;;;5075713;28;20044;-85
2023/12/10 01:02:13;;;;;;;18.83;5.37;;;7.50;99.90;;;;;;5069884;28;20039;-85
2023/12/10 01:04:39;;;;;;;20.93;4.90;;;7.50;99.90;;;;;;5075261;28;20547;-85
2023/12/10 01:07:05;;;;;;;20.37;5.23;;;7.50;99.90;;;;;;5054842;28;20056;-85
2023/12/10 01:09:35;;;;;;;27.80;9.02;;;7.50;99.90;;;;;;5059640;28;20052;-85
2023/12/10 01:12:03;;;;;;;20.75;5.00;;;7.50;99.90;;;;;;5082178;28;20028;-85
2023/12/10 01:14:29;;;;;;;17.98;5.80;;;7.50;99.90;;;;;;5092731;28;20379;-85
2023/12/10 01:16:55;;;;;;;17.75;4.65;;;7.40;99.90;;;;;;5072297;28;20046;-85
2023/12/10 01:19:22;;;;;;;22.97;5.43;;;7.40;99.90;;;;;;5075642;28;20139;-85
2023/12/10 01:21:49;;;;;;;;;;;7.30;99.90;;;;;;5079824;28;21709;-88
2023/12/10 01:24:18;;;;;;;18.88;5.25;;;7.20;99.90;;;;;;5057345;28;20439;-85
2023/12/10 01:26:44;;;;;;;21.23;4.70;;;7.20;99.90;;;;;;5090667;28;20115;-85
2023/12/10 01:29:10;;;;;;;26.27;5.77;;;7.20;99.90;;;;;;5091728;28;20119;-85
2023/12/10 01:31:35;;;;;;;20.67;4.93;;;7.20;99.90;;;;;;5090394;28;20047;-85
2023/12/10 01:34:02;;;;;;;26.23;6.13;;;7.10;99.90;;;;;;5072969;28;20036;-85
2023/12/10 01:36:28;;;;;;;22.15;5.75;;;7.20;99.90;;;;;;5091065;28;20097;-85
2023/12/10 01:38:53;;;;;;;18.70;5.73;;;7.10;99.90;;;;;;5089176;28;20040;-85
2023/12/10 01:41:19;;;;;;;22.87;6.63;;;7.10;99.90;;;;;;5058513;28;20047;-85
2023/12/10 01:43:45;;;;;;;23.60;6.37;;;7.10;99.90;;;;;;5055110;28;20044;-85
2023/12/10 01:46:11;;;;;;;16.83;5.60;;;7.10;99.90;;;;;;5090341;28;20047;-85
2023/12/10 01:48:41;;;;;;;25.80;5.83;;;7.10;99.90;;;;;;5072965;28;20047;-85
2023/12/10 01:51:08;;;;;;;31.58;6.90;;;7.10;99.90;;;;;;5072571;28;20094;-85
2023/12/10 01:53:34;;;;;;;22.50;7.03;;;7.10;99.90;;;;;;5058818;28;20044;-85
2023/12/10 01:56:00;;;;;;;26.83;6.75;;;7.10;99.90;;;;;;5070164;28;20500;-85
2023/12/10 01:58:27;;;;;;;28.23;6.47;;;7.10;99.90;;;;;;5056424;28;20048;-85
2023/12/10 02:00:52;;;;;;;36.17;7.53;;;7.10;99.90;;;;;;5098855;28;20364;-86
2023/12/10 02:03:18;;;;;;;20.17;5.53;;;7.10;99.90;;;;;;5073817;28;20043;-85
2023/12/10 02:05:44;;;;;;;23.43;5.37;;;7.10;99.90;;;;;;5054519;28;20102;-85
2023/12/10 02:08:10;;;;;;;20.43;5.20;;;7.10;99.90;;;;;;5074119;28;20513;-86
2023/12/10 02:10:35;;;;;;;33.23;8.07;;;7.10;99.90;;;;;;5085677;28;20044;-85
2023/12/10 02:13:03;;;;;;;29.80;6.33;;;7.10;99.90;;;;;;5072767;28;20075;-86
2023/12/10 02:15:29;;;;;;;32.40;5.93;;;7.10;99.90;;;;;;5057089;28;20052;-85
2023/12/10 02:17:54;;;;;;;27.00;6.40;;;7.10;99.90;;;;;;5072489;28;20040;-86
2023/12/10 02:20:20;;;;;;;25.67;6.83;;;7.10;99.90;;;;;;5031769;28;20044;-86
2023/12/10 02:23:11;;;;;;;19.73;6.37;;;7.10;99.90;;;;;;5056338;28;20493;-85
2023/12/10 02:25:39;;;;;;;26.33;5.55;;;7.10;99.90;;;;;;5096776;28;20131;-87
2023/12/10 02:28:07;;;;;;;28.80;7.07;;;7.10;99.90;;;;;;5086662;28;20558;-86
2023/12/10 02:30:33;;;;;;;23.00;6.82;;;7.10;99.90;;;;;;5074401;28;20039;-85
2023/12/10 02:33:00;;;;;;;25.17;5.97;;;7.10;99.90;;;;;;5056183;28;20047;-89
2023/12/10 02:35:26;;;;;;;20.23;6.75;;;7.10;99.90;;;;;;5091156;28;20075;-86
2023/12/10 02:37:52;;;;;;;20.58;6.15;;;7.10;99.90;;;;;;5089475;28;20044;-87
2023/12/10 02:40:18;;;;;;;29.00;7.23;;;7.10;99.90;;;;;;5072261;28;20070;-85
2023/12/10 02:42:48;;;;;;;30.60;6.83;;;7.10;99.90;;;;;;5072807;28;20141;-85
2023/12/10 02:45:14;;;;;;;31.13;6.60;;;7.10;99.90;;;;;;5059498;28;20299;-86
2023/12/10 02:47:40;;;;;;;21.23;8.02;;;6.10;99.90;;;;;;5048934;28;20398;-85
2023/12/10 02:50:07;;;;;;;18.88;7.10;;;7.10;99.90;;;;;;5071666;28;20050;-86
2023/12/10 02:52:37;;;;;;;24.02;6.00;;;7.10;99.90;;;;;;5073406;28;20043;-86
2023/12/10 02:55:09;;;;;;;26.63;6.95;;;7.10;99.90;;;;;;5110435;27;20472;-87
2023/12/10 02:57:34;;;;;;;27.90;6.45;;;7.10;99.90;;;;;;5073504;28;20080;-86
2023/12/10 03:00:00;;;;;;;30.63;7.03;;;7.10;99.90;;;;;;5071367;28;20125;-87
2023/12/10 03:02:26;;;;;;;26.27;6.43;;;7.10;99.90;;;;;;5090659;28;20047;-85
2023/12/10 03:04:52;;;;;;;26.27;6.40;;;7.10;99.90;;;;;;5072877;28;20040;-85
2023/12/10 03:07:17;;;;;;;30.83;6.70;;;7.10;99.90;;;;;;5056371;28;20072;-86
2023/12/10 03:09:44;;;;;;;27.70;7.47;;;7.10;99.90;;;;;;5069138;28;20122;-85
2023/12/10 03:12:10;;;;;;;24.73;6.00;;;7.10;99.90;;;;;;5054759;28;20040;-86
2023/12/10 03:14:35;;;;;;;24.67;5.97;;;7.10;99.90;;;;;;5073475;28;20595;-85
2023/12/10 03:17:01;;;;;;;25.93;6.33;;;7.10;99.90;;;;;;5072492;28;20044;-85
2023/12/10 03:19:27;;;;;;;23.80;6.23;;;7.10;99.90;;;;;;5089759;28;20056;-86
2023/12/10 03:21:53;;;;;;;25.37;5.93;;;7.10;99.90;;;;;;5048211;28;20089;-86
2023/12/10 03:24:18;;;;;;;20.03;7.53;;;7.10;99.90;;;;;;5055593;28;20145;-85
2023/12/10 03:26:44;;;;;;;24.30;6.17;;;7.10;99.90;;;;;;5072745;28;20098;-85
2023/12/10 03:29:12;;;;;;;20.47;5.67;;;7.10;99.90;;;;;;5055769;28;20048;-86
2023/12/10 03:31:38;;;;;;;24.38;6.38;;;7.10;99.90;;;;;;5070925;28;20170;-86
2023/12/10 03:34:03;;;;;;;19.60;7.37;;;7.00;99.90;;;;;;5073735;28;20118;-86
2023/12/10 03:36:29;;;;;;;29.10;8.20;;;7.00;99.90;;;;;;5070527;28;20044;-85
2023/12/10 03:38:55;;;;;;;26.40;6.90;;;7.00;99.90;;;;;;5087637;28;20496;-85
2023/12/10 03:41:20;;;;;;;22.13;5.93;;;7.00;99.90;;;;;;5077085;28;20036;-86
2023/12/10 03:43:46;;;;;;;21.63;5.50;;;7.10;99.90;;;;;;5070704;28;20127;-86
2023/12/10 03:46:12;;;;;;;20.50;5.00;;;7.00;99.90;;;;;;5071852;28;20085;-86
2023/12/10 03:48:38;;;;;;;14.87;4.60;;;7.00;99.90;;;;;;5073184;28;20197;-85
2023/12/10 03:51:04;;;;;;;19.87;5.43;;;7.10;99.90;;;;;;5071921;28;20040;-85
2023/12/10 03:53:29;;;;;;;15.95;4.47;;;7.00;99.90;;;;;;5049173;28;20056;-86
2023/12/10 03:55:55;;;;;;;15.83;4.67;;;7.00;99.90;;;;;;5071632;28;20040;-86
2023/12/10 03:58:21;;;;;;;22.83;5.70;;;7.00;99.90;;;;;;5088594;28;20393;-86
2023/12/10 04:00:50;;;;;;;14.10;4.57;;;7.00;99.90;;;;;;5056901;28;20050;-86
2023/12/10 04:03:15;;;;;;;9.50;3.67;;;7.10;99.90;;;;;;5081768;28;20419;-86
2023/12/10 04:05:41;;;;;;;13.47;3.63;;;7.00;99.90;;;;;;5072474;28;20048;-86
2023/12/10 04:08:07;;;;;;;15.43;5.17;;;7.00;99.90;;;;;;5089752;28;20085;-86
2023/12/10 04:10:33;;;;;;;9.07;3.47;;;7.00;99.90;;;;;;5054246;28;20051;-85
2023/12/10 04:12:58;;;;;;;12.47;3.30;;;7.00;99.90;;;;;;5086115;28;20062;-86
2023/12/10 04:15:24;;;;;;;12.33;3.23;;;7.00;99.90;;;;;;5072359;28;20123;-86
2023/12/10 04:17:50;;;;;;;8.23;2.77;;;7.00;99.90;;;;;;5070887;28;20048;-86
2023/12/10 04:20:16;;;;;;;9.77;3.57;;;7.00;99.90;;;;;;5089769;28;20037;-86
2023/12/10 04:22:42;;;;;;;13.03;4.73;;;7.10;99.90;;;;;;5036958;28;20052;-86
2023/12/10 04:25:08;;;;;;;14.32;3.67;;;7.00;99.90;;;;;;5071488;28;20043;-86
2023/12/10 04:27:34;;;;;;;9.98;3.55;;;6.00;99.90;;;;;;5072380;28;20036;-85
2023/12/10 04:30:00;;;;;;;13.20;4.43;;;7.10;99.90;;;;;;5088128;28;20046;-86
2023/12/10 04:32:26;;;;;;;10.10;3.53;;;7.10;99.90;;;;;;5089617;28;20285;-86
2023/12/10 04:34:51;;;;;;;16.53;4.80;;;7.10;99.90;;;;;;5072206;28;20083;-86
2023/12/10 04:37:18;;;;;;;15.93;3.87;;;7.10;99.90;;;;;;5091677;28;20398;-88
2023/12/10 04:39:45;;;;;;;16.40;5.20;;;7.10;99.90;;;;;;5089035;28;20123;-86
2023/12/10 04:42:10;;;;;;;;;;;7.20;99.90;;;;;;5076613;28;20478;-87
2023/12/10 04:44:36;;;;;;;12.57;4.00;;;7.20;99.90;;;;;;5101585;28;19931;-86
2023/12/10 04:47:02;;;;;;;9.63;3.33;;;7.20;99.90;;;;;;5070013;28;20102;-86
2023/12/10 04:49:28;;;;;;;14.30;3.67;;;7.20;99.90;;;;;;5036096;28;20040;-86
2023/12/10 04:51:53;;;;;;;11.87;3.20;;;7.20;99.90;;;;;;5058929;28;20121;-86
2023/12/10 04:54:22;;;;;;;12.00;4.03;;;7.20;99.90;;;;;;5058671;28;20039;-90
2023/12/10 04:56:48;;;;;;;12.50;4.25;;;7.30;99.90;;;;;;5042468;28;20040;-86
2023/12/10 04:59:13;;;;;;;14.10;4.63;;;7.30;99.90;;;;;;5066150;28;20071;-86
2023/12/10 05:01:41;;;;;;;11.07;3.63;;;7.30;99.90;;;;;;5065078;28;20040;-86
2023/12/10 05:04:07;;;;;;;8.50;2.85;;;7.30;99.90;;;;;;5092796;28;20036;-86
2023/12/10 05:06:33;;;;;;;16.33;4.18;;;7.30;99.90;;;;;;5086742;28;20049;-87
2023/12/10 05:08:59;;;;;;;14.27;3.03;;;7.30;99.90;;;;;;5031171;28;20048;-86
2023/12/10 05:11:24;;;;;;;13.20;3.37;;;7.30;99.90;;;;;;5076531;28;20048;-87
2023/12/10 05:13:50;;;;;;;10.57;3.10;;;7.30;99.90;;;;;;5073863;28;20040;-87
2023/12/10 05:16:16;;;;;;;7.97;2.77;;;7.30;99.90;;;;;;5092367;28;20047;-86
2023/12/10 05:18:42;;;;;;;9.55;3.38;;;7.30;99.90;;;;;;5091820;28;20193;-86
2023/12/10 05:21:07;;;;;;;7.43;2.37;;;7.40;99.90;;;;;;5057796;28;20032;-86
2023/12/10 05:23:33;;;;;;;10.70;2.83;;;7.40;99.90;;;;;;5073031;28;20056;-87
2023/12/10 05:25:59;;;;;;;7.73;2.77;;;7.40;99.90;;;;;;5076523;28;20051;-87
2023/12/10 05:28:25;;;;;;;6.27;2.47;;;7.40;99.90;;;;;;5072641;28;20040;-89
2023/12/10 05:30:50;;;;;;;8.20;2.90;;;7.50;99.90;;;;;;5033722;28;20153;-86
2023/12/10 05:33:16;;;;;;;6.37;2.47;;;7.50;99.90;;;;;;5096361;28;20048;-87
2023/12/10 05:35:42;;;;;;;7.43;2.23;;;7.50;99.90;;;;;;5068197;28;20440;-86
2023/12/10 05:38:09;;;;;;;10.03;2.83;;;7.50;99.90;;;;;;5071843;28;20379;-87
2023/12/10 05:40:35;;;;;;;6.90;2.33;;;7.60;99.90;;;;;;5041718;28;20123;-87
2023/12/10 05:43:00;;;;;;;10.03;3.50;;;7.60;99.90;;;;;;5093312;28;20135;-87
2023/12/10 05:45:27;;;;;;;11.57;3.03;;;7.60;99.90;;;;;;5091723;28;20097;-91
2023/12/10 05:47:53;;;;;;;8.73;2.70;;;7.60;99.90;;;;;;5057690;28;20036;-87
2023/12/10 05:50:19;;;;;;;8.97;3.13;;;7.60;99.90;;;;;;5040149;28;20097;-86
2023/12/10 05:52:45;;;;;;;13.27;2.93;;;7.60;99.90;;;;;;5082723;28;20040;-87
2023/12/10 05:55:11;;;;;;;17.10;3.77;;;7.70;99.90;;;;;;5090505;28;20050;-88
2023/12/10 05:57:36;;;;;;;8.60;3.00;;;7.70;99.90;;;;;;5068737;28;20071;-86
2023/12/10 06:00:03;;;;;;;10.77;3.30;;;7.60;99.90;;;;;;5072967;28;20442;-87
2023/12/10 06:02:29;;;;;;;7.18;3.08;;;7.70;99.90;;;;;;5096183;28;20135;-90
2023/12/10 06:04:55;;;;;;;13.13;3.33;;;7.60;99.90;;;;;;5075288;28;20123;-87
2023/12/10 06:07:21;;;;;;;10.00;3.50;;;7.70;99.90;;;;;;5072914;28;20052;-88
2023/12/10 06:09:46;;;;;;;12.77;3.60;;;7.70;99.90;;;;;;5074396;28;20493;-87
2023/12/10 06:12:12;;;;;;;9.50;2.80;;;7.70;99.90;;;;;;5069486;28;20043;-87
2023/12/10 06:14:38;;;;;;;15.83;4.37;;;7.70;99.90;;;;;;5028099;28;20105;-86
2023/12/10 06:17:04;;;;;;;17.57;4.33;;;7.70;99.90;;;;;;5067739;28;20055;-87
2023/12/10 06:19:29;;;;;;;16.03;3.53;;;7.70;99.90;;;;;;5072490;28;20080;-91
2023/12/10 06:21:57;;;;;;;12.93;3.63;;;7.70;99.90;;;;;;5068398;28;20096;-86
2023/12/10 06:24:23;;;;;;;11.43;3.35;;;7.70;99.90;;;;;;5057447;28;20040;-86
2023/12/10 06:26:49;;;;;;;12.57;3.63;;;7.70;99.90;;;;;;5077890;28;20500;-87
2023/12/10 06:29:15;;;;;;;12.47;3.70;;;7.70;99.90;;;;;;5056994;28;20060;-86
2023/12/10 06:31:41;;;;;;;8.75;2.67;;;7.70;99.90;;;;;;5077402;28;20040;-87
2023/12/10 06:34:07;;;;;;;9.43;3.50;;;7.70;99.90;;;;;;5072820;28;20051;-87
2023/12/10 06:36:32;;;;;;;13.23;3.73;;;7.70;99.90;;;;;;5055393;28;20549;-90
2023/12/10 06:38:58;;;;;;;8.70;3.00;;;7.70;99.90;;;;;;5073840;28;20036;-87
2023/12/10 06:41:24;;;;;;;9.70;2.80;;;7.70;99.90;;;;;;5090018;28;20052;-87
2023/12/10 06:43:50;;;;;;;8.93;2.77;;;7.70;99.90;;;;;;5056739;28;20079;-86
2023/12/10 06:46:17;;;;;;;9.97;2.47;;;7.70;99.90;;;;;;5035841;28;20048;-87
2023/12/10 06:48:43;;;;;;;7.07;1.77;;;7.70;99.90;;;;;;5120675;27;20058;-86
2023/12/10 06:51:09;;;;;;;9.70;2.23;;;7.70;99.90;;;;;;5074207;28;20036;-87
2023/12/10 06:53:34;;;;;;;11.67;3.93;;;7.70;99.90;;;;;;5074501;28;20845;-90
2023/12/10 06:56:00;;;;;;;11.93;3.40;;;7.60;99.90;;;;;;5089737;28;20507;-87
2023/12/10 06:58:28;;;;;;;14.13;3.00;;;7.80;99.90;;;;;;5074185;28;20043;-88
2023/12/10 07:00:56;;;;;;;9.23;2.95;;;7.60;99.90;;;;;;5087493;28;20109;-88
2023/12/10 07:03:22;;;;;;;11.98;4.03;;;7.80;99.90;;;;;;5090725;28;20063;-87
2023/12/10 07:05:52;;;;;;;18.75;4.35;;;7.70;99.90;;;;;;5035201;28;20075;-87
2023/12/10 07:08:18;;;;;;;21.52;4.65;;;7.70;99.90;;;;;;5071561;28;20075;-87
2023/12/10 07:10:44;;;;;;;7.37;2.77;;;7.70;99.90;;;;;;5073773;28;20078;-87
2023/12/10 07:13:10;;;;;;;12.37;3.13;;;7.70;99.90;;;;;;5070113;28;20051;-87
2023/12/10 07:15:36;;;;;;;11.03;3.57;;;7.70;99.90;;;;;;5093860;28;20072;-89
2023/12/10 07:18:02;;;;;;;10.50;3.57;;;7.70;99.90;;;;;;5085186;28;20047;-88
2023/12/10 07:20:28;;;;;;;20.83;4.43;;;7.70;99.90;;;;;;5090655;28;20348;-86
2023/12/10 07:23:00;;;;;;;17.13;4.47;;;7.70;99.90;;;;;;5089602;28;20440;-87
2023/12/10 07:25:26;;;;;;;19.23;6.07;;;7.70;99.90;;;;;;5087856;28;20149;-87
2023/12/10 07:27:52;;;;;;;26.17;5.20;;;7.70;99.90;;;;;;5073618;28;20508;-87
2023/12/10 07:30:18;;;;;;;25.23;5.60;;;7.70;99.90;;;;;;5055073;28;20127;-86
2023/12/10 07:32:44;;;;;;;26.07;4.97;;;7.70;99.90;;;;;;5073098;28;20040;-87
2023/12/10 07:35:09;;;;;;;26.30;6.87;;;7.70;99.90;;;;;;5072645;28;20199;-87
2023/12/10 07:37:35;;;;;;;36.70;9.83;;;7.70;99.90;;;;;;5055422;28;20123;-87
2023/12/10 07:40:02;;;;;;;24.67;6.87;;;7.60;99.90;;;;;;5078509;28;20067;-86
2023/12/10 07:42:28;;;;;;;26.02;7.03;;;7.60;99.90;;;;;;5073838;28;20407;-86
2023/12/10 07:44:54;;;;;;;24.63;5.97;;;7.60;99.90;;;;;;5071267;28;20040;-86
2023/12/10 07:47:22;;;;;;;33.65;8.18;;;7.60;99.90;;;;;;5073322;28;20040;-86
2023/12/10 07:49:48;;;;;;;25.38;7.70;;;7.60;99.90;;;;;;5091573;28;20040;-86
2023/12/10 07:52:14;;;;;;;18.13;5.30;;;7.60;99.90;;;;;;5084126;28;20546;-86
2023/12/10 07:54:39;;;;;;;29.43;6.60;;;7.60;99.90;;;;;;5090513;28;20036;-86
2023/12/10 07:57:05;;;;;;;14.90;4.30;;;7.60;99.90;;;;;;5071381;28;20130;-89
2023/12/10 07:59:31;;;;;;;23.60;6.23;;;7.60;99.90;;;;;;5073484;28;20101;-86
2023/12/10 08:01:57;;;;;;;25.52;6.38;;;7.60;99.90;;;;;;5061668;28;20048;-89
2023/12/10 08:04:25;;;;;;;25.27;6.33;;;7.10;99.90;;;;;;5071394;28;20059;-90
2023/12/10 08:06:56;;;;;;;20.60;5.25;;;7.60;99.90;;;;;;5073614;28;20136;-89
2023/12/10 08:09:22;;;;;;;20.40;5.30;;;7.30;99.90;;;;;;5074488;28;20048;-90
2023/12/10 08:11:55;;;;;;;23.13;5.07;;;7.70;99.90;;;;;;5090404;28;20146;-91
2023/12/10 08:14:30;;;;;;;;;;;;;;;;;;;;;
2023/12/10 08:16:56;;;;;;;17.35;4.22;;;7.10;99.90;;;;;;5093214;28;20059;-86
2023/12/10 08:19:22;;;;;;;24.47;4.33;;;7.50;99.90;;;;;;5077191;28;20398;-86
2023/12/10 08:21:48;;;;;;;15.50;4.57;;;7.60;99.90;;;;;;5075256;28;20087;-90
2023/12/10 08:24:14;;;;;;;18.53;4.90;;;7.60;99.90;;;;;;5099913;27;20047;-87
2023/12/10 08:26:40;;;;;;;19.30;4.63;;;7.70;99.90;;;;;;5091117;28;20055;-86
2023/12/10 08:29:05;;;;;;;17.60;5.90;;;7.60;99.90;;;;;;5085033;28;20041;-85
2023/12/10 08:31:31;;;;;;;13.27;4.20;;;7.60;99.90;;;;;;5058002;28;20051;-84
2023/12/10 08:33:57;;;;;;;27.27;5.97;;;7.60;99.90;;;;;;5075942;28;20048;-84
2023/12/10 08:36:22;;;;;;;22.43;5.37;;;7.60;99.90;;;;;;5048220;28;20474;-85
2023/12/10 08:38:48;;;;;;;15.03;6.30;;;7.20;99.90;;;;;;5041413;28;20037;-89
2023/12/10 08:41:14;;;;;;;25.53;5.63;;;7.50;99.90;;;;;;5089504;28;20078;-85
2023/12/10 08:43:39;;;;;;;15.10;4.50;;;7.50;99.90;;;;;;5076918;28;20504;-85
2023/12/10 08:46:08;;;;;;;15.03;4.23;;;7.50;99.90;;;;;;5055751;28;21699;-86
2023/12/10 08:48:33;;;;;;;17.63;5.80;;;7.50;99.90;;;;;;5067035;28;20036;-85
2023/12/10 08:50:59;;;;;;;26.53;4.27;;;7.50;99.90;;;;;;5057136;28;20089;-86
2023/12/10 08:53:25;;;;;;;22.43;4.87;;;7.50;99.90;;;;;;5057021;28;20052;-88
2023/12/10 08:55:51;;;;;;;19.30;5.30;;;7.60;99.90;;;;;;5058787;28;20036;-90
2023/12/10 08:58:16;;;;;;;14.90;4.27;;;7.50;99.90;;;;;;5071756;28;20140;-85
2023/12/10 09:00:42;;;;;;;20.87;5.63;;;7.50;99.90;;;;;;5086833;28;20047;-86
2023/12/10 09:03:08;;;;;;;11.83;3.43;;;7.50;99.90;;;;;;5073676;28;20409;-86
2023/12/10 09:05:33;;;;;;;16.47;3.93;;;7.50;99.90;;;;;;5083520;27;20516;-88
2023/12/10 09:07:59;;;;;;;20.50;4.87;;;7.60;99.90;;;;;;5059035;28;20173;-86
2023/12/10 09:10:25;;;;;;;21.77;4.40;;;7.60;99.90;;;;;;5087320;28;20149;-86
2023/12/10 09:12:51;;;;;;;18.97;6.47;;;7.60;99.90;;;;;;5074519;28;20434;-86
2023/12/10 09:15:16;;;;;;;23.30;5.27;;;7.60;99.90;;;;;;5084204;28;20044;-86
2023/12/10 09:17:42;;;;;;;20.27;4.10;;;7.60;99.90;;;;;;5065837;28;20058;-87
2023/12/10 09:20:08;;;;;;;15.80;4.57;;;7.60;99.90;;;;;;5069281;28;20470;-86
2023/12/10 09:22:35;;;;;;;15.25;3.95;;;7.60;99.90;;;;;;5074924;28;20485;-85
2023/12/10 09:25:02;;;;;;;17.80;3.78;;;7.60;99.90;;;;;;5072702;28;20044;-87
2023/12/10 09:27:28;;;;;;;7.63;3.17;;;7.60;99.90;;;;;;5074117;28;20433;-86
2023/12/10 09:29:54;;;;;;;15.57;4.13;;;7.60;99.90;;;;;;5074822;28;20135;-86
2023/12/10 09:32:23;;;;;;;13.30;4.63;;;6.60;99.90;;;;;;5069068;28;20555;-86
2023/12/10 09:34:50;;;;;;;11.60;3.42;;;7.60;99.90;;;;;;5074552;28;20067;-86
2023/12/10 09:37:16;;;;;;;;;;;7.60;99.90;;;;;;5083749;28;20080;-86
2023/12/10 09:39:44;;;;;;;18.38;5.28;;;7.60;99.90;;;;;;5074147;28;19920;-87
2023/12/10 09:42:10;;;;;;;19.02;3.80;;;7.60;99.90;;;;;;5081993;28;20094;-86
2023/12/10 09:44:36;;;;;;;19.53;5.13;;;7.60;99.90;;;;;;5091991;28;20060;-88
2023/12/10 09:47:09;;;;;;;12.30;4.13;;;7.60;99.90;;;;;;5056910;28;20111;-87
2023/12/10 09:49:37;;;;;;;17.73;5.53;;;7.60;99.90;;;;;;5074114;28;20047;-84
2023/12/10 09:52:07;;;;;;;19.00;4.32;;;7.60;99.90;;;;;;5097885;28;20043;-84
2023/12/10 09:54:33;;;;;;;20.40;5.07;;;7.70;99.90;;;;;;5098485;28;20044;-85
2023/12/10 09:56:59;;;;;;;11.60;3.53;;;8.00;99.90;;;;;;5073176;28;20431;-87
2023/12/10 09:59:25;;;;;;;17.73;4.60;;;7.60;99.90;;;;;;5090552;28;20104;-86
2023/12/10 10:01:53;;;;;;;17.27;5.47;;;7.60;99.90;;;;;;5069432;28;20040;-84
2023/12/10 10:04:19;;;;;;;31.30;6.15;;;7.60;99.90;;;;;;5088409;28;20036;-85
2023/12/10 10:06:45;;;;;;;20.77;4.75;;;7.60;99.90;;;;;;5074999;28;20044;-83
2023/12/10 10:09:11;;;;;;;23.45;5.75;;;7.60;99.90;;;;;;5072682;28;20481;-84
2023/12/10 10:11:38;;;;;;;24.52;7.18;;;7.60;99.90;;;;;;5090459;28;20043;-83
2023/12/10 10:14:04;;;;;;;35.08;8.45;;;7.60;99.90;;;;;;5063839;28;20044;-84
2023/12/10 10:16:33;;;;;;;32.20;9.47;;;7.60;99.90;;;;;;5056595;28;20044;-84
2023/12/10 10:19:00;;;;;;;37.10;11.50;;;7.60;99.90;;;;;;5058431;28;20048;-87
2023/12/10 10:21:26;;;;;;;49.78;12.07;;;8.20;99.90;;;;;;5055742;28;20059;-84
2023/12/10 10:23:51;;;;;;;41.72;9.18;;;7.60;99.90;;;;;;5088195;28;20408;-83
2023/12/10 10:26:20;;;;;;;28.97;8.63;;;7.60;99.90;;;;;;5089923;28;20048;-83
2023/12/10 10:28:46;;;;;;;33.80;8.13;;;7.60;99.90;;;;;;5090269;28;20046;-84
2023/12/10 10:31:12;;;;;;;29.47;8.07;;;7.60;99.90;;;;;;5055977;28;20384;-84
2023/12/10 10:33:40;;;;;;;35.53;8.57;;;7.60;99.90;;;;;;5092247;28;20048;-85
2023/12/10 10:36:06;;;;;;;39.85;9.35;;;7.60;99.90;;;;;;5058682;28;20052;-86
2023/12/10 10:38:32;;;;;;;41.47;10.05;;;7.60;99.90;;;;;;5096734;28;20122;-87
2023/12/10 10:40:59;;;;;;;31.00;10.25;;;7.60;99.90;;;;;;5076656;28;20044;-88
2023/12/10 10:43:25;;;;;;;35.63;8.48;;;7.60;99.90;;;;;;5082782;28;20434;-84
2023/12/10 10:45:53;;;;;;;43.72;9.45;;;7.60;99.90;;;;;;5050376;28;20044;-86
2023/12/10 10:48:22;;;;;;;29.70;7.63;;;7.60;99.90;;;;;;5097343;28;20040;-85
2023/12/10 10:50:49;;;;;;;35.92;9.65;;;7.70;99.90;;;;;;5091895;28;20047;-83
2023/12/10 10:53:15;;;;;;;;;;;7.70;99.90;;;;;;5074133;28;20036;-85
2023/12/10 10:55:41;;;;;;;46.85;10.43;;;7.60;99.90;;;;;;5072207;28;19920;-86
2023/12/10 10:58:28;;;;;;;31.50;8.20;;;7.70;99.90;;;;;;5073737;28;20048;-89
2023/12/10 11:00:58;;;;;;;27.65;8.60;;;7.70;99.90;;;;;;5082543;28;20486;-85
2023/12/10 11:03:27;;;;;;;29.88;7.88;;;7.70;99.90;;;;;;5090188;28;20119;-84
2023/12/10 11:06:02;;;;;;;27.83;7.28;;;7.70;99.90;;;;;;5082616;28;20486;-85
2023/12/10 11:08:29;;;;;;;35.50;8.65;;;7.70;99.90;;;;;;5115623;27;20052;-85
2023/12/10 11:11:01;;;;;;;29.58;7.13;;;7.70;99.90;;;;;;5090170;28;20040;-85
2023/12/10 11:13:45;;;;;;;26.98;7.25;;;7.70;99.90;;;;;;5090866;28;20067;-84
2023/12/10 11:16:11;;;;;;;22.65;7.95;;;7.70;99.90;;;;;;5071363;28;20096;-84
2023/12/10 11:18:53;;;;;;;28.90;6.80;;;7.70;99.90;;;;;;5072982;28;20044;-84
2023/12/10 11:21:19;;;;;;;31.42;8.05;;;7.70;99.90;;;;;;5090110;28;20044;-85
2023/12/10 11:23:45;;;;;;;26.20;7.03;;;7.70;99.90;;;;;;5062337;28;20493;-84
2023/12/10 11:26:11;;;;;;;33.10;7.95;;;7.70;99.90;;;;;;5086899;28;20054;-86
2023/12/10 11:28:37;;;;;;;26.02;6.70;;;7.70;99.90;;;;;;5071683;28;20477;-84
2023/12/10 11:31:03;;;;;;;29.07;9.20;;;7.70;99.90;;;;;;5091176;28;20047;-83
2023/12/10 11:33:31;;;;;;;28.40;7.80;;;7.70;99.90;;;;;;5087104;28;20051;-84
2023/12/10 11:35:57;;;;;;;26.10;6.70;;;7.80;99.90;;;;;;5065152;28;20212;-85
2023/12/10 11:38:23;;;;;;;41.13;11.37;;;7.80;99.90;;;;;;5056349;28;20127;-84
2023/12/10 11:40:49;;;;;;;28.38;8.55;;;7.80;99.90;;;;;;5074270;28;20399;-83
2023/12/10 11:43:15;;;;;;;25.10;6.68;;;7.80;99.90;;;;;;5087746;28;20478;-84
2023/12/10 11:45:41;;;;;;;32.73;8.60;;;7.90;99.90;;;;;;5069127;28;20045;-83
2023/12/10 11:48:07;;;;;;;38.13;9.23;;;7.80;99.90;;;;;;5072582;28;20040;-85
2023/12/10 11:50:37;;;;;;;26.83;8.27;;;7.90;99.90;;;;;;5092441;28;20370;-84
2023/12/10 11:53:03;;;;;;;28.90;7.82;;;7.90;99.90;;;;;;5076625;28;20047;-84
2023/12/10 11:55:30;;;;;;;;;;;7.90;99.90;;;;;;5092190;28;21585;-84
2023/12/10 11:57:56;;;;;;;31.30;8.73;;;7.90;99.90;;;;;;5076187;28;19931;-84
2023/12/10 12:00:23;;;;;;;40.40;7.47;;;7.90;99.90;;;;;;5050745;28;20048;-84
2023/12/10 12:02:48;;;;;;;27.60;6.95;;;7.90;99.90;;;;;;5077775;28;20051;-84
2023/12/10 12:05:15;;;;;;;28.53;7.57;;;7.90;99.90;;;;;;5072965;28;20052;-85
2023/12/10 12:07:42;;;;;;;;;;;7.90;99.90;;;;;;5091273;28;20052;-85
2023/12/10 12:10:09;;;;;;;26.23;7.13;;;7.80;99.90;;;;;;5056702;28;19920;-84
2023/12/10 12:12:42;;;;;;;19.77;6.63;;;7.80;99.90;;;;;;5076526;28;20105;-84
2023/12/10 12:15:12;;;;;;;20.00;6.15;;;7.80;99.90;;;;;;5071593;28;20123;-84
2023/12/10 12:17:39;;;;;;;28.30;6.38;;;7.80;99.90;;;;;;5073360;28;20409;-84
2023/12/10 12:20:22;;;;;;;20.67;5.80;;;7.80;99.90;;;;;;5119495;27;20047;-85
2023/12/10 12:22:49;;;;;;;21.20;5.60;;;7.80;99.90;;;;;;5077292;28;20135;-85
2023/12/10 12:25:16;;;;;;;27.90;6.10;;;7.80;99.90;;;;;;5075243;28;20515;-85
2023/12/10 12:27:43;;;;;;;19.15;6.70;;;7.80;99.90;;;;;;5093639;28;20055;-85
2023/12/10 12:30:09;;;;;;;22.30;5.88;;;7.80;99.90;;;;;;5059027;28;20043;-85
2023/12/10 12:32:35;;;;;;;16.70;6.05;;;7.80;99.90;;;;;;5090828;28;20074;-85
2023/12/10 12:35:05;;;;;;;27.83;7.97;;;7.10;99.90;;;;;;5091366;28;20071;-84
2023/12/10 12:37:33;;;;;;;27.23;6.32;;;8.30;99.90;;;;;;5076356;28;20110;-85
2023/12/10 12:39:59;;;;;;;23.60;6.05;;;7.20;99.90;;;;;;5090665;28;20396;-85
2023/12/10 12:42:25;;;;;;;33.53;10.00;;;7.90;99.90;;;;;;5077570;28;20055;-85
2023/12/10 12:44:54;;;;;;;24.60;6.50;;;7.90;99.90;;;;;;5075895;28;20052;-87
2023/12/10 12:47:21;;;;;;;21.73;5.82;;;7.90;99.90;;;;;;5075372;28;20071;-91